sensor_id;sensor_type;location;lat;lon;timestamp;pressure;altitude;pressure_sealevel;temperature;humidity
47366;BME280;33105;47.964;7.982;2023-05-03T00:01:41;97386.75;;;7.79;84.57
47366;BME280;33105;47.964;7.982;2023-05-03T00:04:43;97382.00;;;7.75;86.00
47366;BME280;33105;47.964;7.982;2023-05-03T00:07:46;97373.66;;;7.88;85.43
47366;BME280;33105;47.964;7.982;2023-05-03T00:10:47;97374.13;;;7.85;84.63
47366;BME280;33105;47.964;7.982;2023-05-03T00:13:48;97376.84;;;7.85;84.52
47366;BME280;33105;47.964;7.982;2023-05-03T00:16:49;97388.19;;;7.82;84.05
47366;BME280;33105;47.964;7.982;2023-05-03T00:19:50;97386.66;;;7.86;84.40
47366;BME280;33105;47.964;7.982;2023-05-03T00:22:53;97377.75;;;7.79;83.71
47366;BME280;33105;47.964;7.982;2023-05-03T00:25:56;97383.38;;;7.66;84.16
47366;BME280;33105;47.964;7.982;2023-05-03T00:28:57;97378.47;;;7.56;84.96
47366;BME280;33105;47.964;7.982;2023-05-03T00:31:58;97377.25;;;7.52;85.28
47366;BME280;33105;47.964;7.982;2023-05-03T00:35:00;97379.38;;;7.50;85.27
47366;BME280;33105;47.964;7.982;2023-05-03T00:38:01;97370.16;;;7.51;85.67
47366;BME280;33105;47.964;7.982;2023-05-03T00:41:03;97374.53;;;7.34;85.66
47366;BME280;33105;47.964;7.982;2023-05-03T00:44:04;97372.09;;;7.44;86.33
47366;BME280;33105;47.964;7.982;2023-05-03T00:47:07;97368.94;;;7.29;86.78
47366;BME280;33105;47.964;7.982;2023-05-03T00:50:08;97370.38;;;7.31;86.69
47366;BME280;33105;47.964;7.982;2023-05-03T00:53:12;97374.31;;;7.35;87.67
47366;BME280;33105;47.964;7.982;2023-05-03T00:56:18;97370.38;;;7.31;86.93
47366;BME280;33105;47.964;7.982;2023-05-03T00:59:25;97367.56;;;7.20;87.03
47366;BME280;33105;47.964;7.982;2023-05-03T01:02:27;97372.28;;;7.31;87.35
47366;BME280;33105;47.964;7.982;2023-05-03T01:05:32;97365.84;;;7.25;87.12
47366;BME280;33105;47.964;7.982;2023-05-03T01:08:58;97363.91;;;7.32;88.18
47366;BME280;33105;47.964;7.982;2023-05-03T01:15:24;97354.63;;;7.40;86.15
47366;BME280;33105;47.964;7.982;2023-05-03T01:18:30;97357.41;;;7.33;86.76
47366;BME280;33105;47.964;7.982;2023-05-03T01:21:35;97356.97;;;7.36;86.58
47366;BME280;33105;47.964;7.982;2023-05-03T01:24:40;97356.97;;;7.36;86.71
47366;BME280;33105;47.964;7.982;2023-05-03T01:27:44;97345.31;;;7.29;86.12
47366;BME280;33105;47.964;7.982;2023-05-03T01:30:47;97353.47;;;7.29;87.06
47366;BME280;33105;47.964;7.982;2023-05-03T01:33:57;97352.66;;;7.29;86.99
47366;BME280;33105;47.964;7.982;2023-05-03T01:37:02;97355.59;;;7.27;87.82
47366;BME280;33105;47.964;7.982;2023-05-03T01:40:07;97351.22;;;7.26;87.56
47366;BME280;33105;47.964;7.982;2023-05-03T01:43:15;97347.44;;;7.27;86.78
47366;BME280;33105;47.964;7.982;2023-05-03T01:46:16;97340.63;;;7.18;86.12
47366;BME280;33105;47.964;7.982;2023-05-03T01:49:19;97343.06;;;7.08;87.23
47366;BME280;33105;47.964;7.982;2023-05-03T01:52:20;97345.31;;;7.11;87.23
47366;BME280;33105;47.964;7.982;2023-05-03T01:55:21;97341.09;;;7.15;85.74
47366;BME280;33105;47.964;7.982;2023-05-03T01:58:22;97348.50;;;7.08;85.82
47366;BME280;33105;47.964;7.982;2023-05-03T02:01:24;97348.31;;;7.03;86.18
47366;BME280;33105;47.964;7.982;2023-05-03T02:04:25;97345.00;;;7.01;87.85
47366;BME280;33105;47.964;7.982;2023-05-03T02:07:26;97347.13;;;6.99;88.00
47366;BME280;33105;47.964;7.982;2023-05-03T02:10:27;97342.66;;;7.04;88.49
47366;BME280;33105;47.964;7.982;2023-05-03T02:13:29;97342.44;;;7.06;88.93
47366;BME280;33105;47.964;7.982;2023-05-03T02:16:31;97344.41;;;6.99;87.76
47366;BME280;33105;47.964;7.982;2023-05-03T02:19:32;97345.16;;;7.06;88.35
47366;BME280;33105;47.964;7.982;2023-05-03T02:22:34;97340.94;;;7.10;87.60
47366;BME280;33105;47.964;7.982;2023-05-03T02:30:22;97329.47;;;6.90;88.18
47366;BME280;33105;47.964;7.982;2023-05-03T02:33:24;97326.13;;;6.88;87.81
47366;BME280;33105;47.964;7.982;2023-05-03T02:36:25;97317.31;;;6.92;89.02
47366;BME280;33105;47.964;7.982;2023-05-03T02:39:27;97323.09;;;6.96;88.83
47366;BME280;33105;47.964;7.982;2023-05-03T02:42:29;97316.50;;;6.92;88.90
47366;BME280;33105;47.964;7.982;2023-05-03T02:45:34;97319.88;;;6.87;87.96
47366;BME280;33105;47.964;7.982;2023-05-03T02:48:35;97317.88;;;6.76;88.65
47366;BME280;33105;47.964;7.982;2023-05-03T02:51:36;97314.56;;;6.74;89.17
47366;BME280;33105;47.964;7.982;2023-05-03T02:54:37;97318.78;;;6.70;86.92
47366;BME280;33105;47.964;7.982;2023-05-03T02:57:44;97321.97;;;6.67;89.09
47366;BME280;33105;47.964;7.982;2023-05-03T03:00:48;97316.97;;;6.64;88.34
47366;BME280;33105;47.964;7.982;2023-05-03T03:03:50;97330.94;;;6.67;90.38
47366;BME280;33105;47.964;7.982;2023-05-03T03:06:51;97326.56;;;6.66;89.86
47366;BME280;33105;47.964;7.982;2023-05-03T03:09:56;97330.94;;;6.67;88.50
47366;BME280;33105;47.964;7.982;2023-05-03T03:12:58;97321.78;;;6.62;87.65
47366;BME280;33105;47.964;7.982;2023-05-03T03:16:07;97322.28;;;6.52;88.54
47366;BME280;33105;47.964;7.982;2023-05-03T03:19:09;97320.84;;;6.49;87.94
47366;BME280;33105;47.964;7.982;2023-05-03T03:22:11;97326.06;;;6.51;89.36
47366;BME280;33105;47.964;7.982;2023-05-03T03:25:13;97326.34;;;6.43;90.13
47366;BME280;33105;47.964;7.982;2023-05-03T03:28:14;97317.44;;;6.36;90.30
47366;BME280;33105;47.964;7.982;2023-05-03T03:31:15;97317.09;;;6.51;90.27
47366;BME280;33105;47.964;7.982;2023-05-03T03:34:19;97321.84;;;6.55;89.92
47366;BME280;33105;47.964;7.982;2023-05-03T03:37:20;97323.47;;;6.63;89.05
47366;BME280;33105;47.964;7.982;2023-05-03T03:40:23;97323.50;;;6.56;87.63
47366;BME280;33105;47.964;7.982;2023-05-03T03:43:27;97324.13;;;6.58;88.31
47366;BME280;33105;47.964;7.982;2023-05-03T03:46:28;97331.06;;;6.72;87.39
47366;BME280;33105;47.964;7.982;2023-05-03T03:49:31;97338.34;;;6.54;89.22
47366;BME280;33105;47.964;7.982;2023-05-03T03:52:32;97332.72;;;6.55;89.10
47366;BME280;33105;47.964;7.982;2023-05-03T03:55:34;97333.41;;;6.69;88.41
47366;BME280;33105;47.964;7.982;2023-05-03T03:58:35;97333.38;;;6.94;87.87
47366;BME280;33105;47.964;7.982;2023-05-03T04:01:38;97331.47;;;6.76;87.63
47366;BME280;33105;47.964;7.982;2023-05-03T04:04:40;97331.16;;;6.66;89.61
47366;BME280;33105;47.964;7.982;2023-05-03T04:07:42;97333.31;;;7.00;87.75
47366;BME280;33105;47.964;7.982;2023-05-03T04:10:44;97334.13;;;6.82;88.05
47366;BME280;33105;47.964;7.982;2023-05-03T04:13:46;97334.53;;;6.61;88.42
47366;BME280;33105;47.964;7.982;2023-05-03T04:16:48;97343.75;;;6.60;89.16
47366;BME280;33105;47.964;7.982;2023-05-03T04:19:50;97342.91;;;6.60;88.91
47366;BME280;33105;47.964;7.982;2023-05-03T04:22:52;97334.81;;;6.53;90.29
47366;BME280;33105;47.964;7.982;2023-05-03T04:25:56;97337.69;;;6.58;89.15
47366;BME280;33105;47.964;7.982;2023-05-03T04:28:58;97332.63;;;6.87;88.07
47366;BME280;33105;47.964;7.982;2023-05-03T04:32:00;97333.47;;;6.87;88.17
47366;BME280;33105;47.964;7.982;2023-05-03T04:35:06;97336.84;;;7.01;87.75
47366;BME280;33105;47.964;7.982;2023-05-03T04:38:11;97330.97;;;7.04;87.65
47366;BME280;33105;47.964;7.982;2023-05-03T04:41:12;97335.41;;;6.98;87.41
47366;BME280;33105;47.964;7.982;2023-05-03T04:44:13;97334.75;;;7.03;88.06
47366;BME280;33105;47.964;7.982;2023-05-03T04:47:16;97330.38;;;7.20;86.90
47366;BME280;33105;47.964;7.982;2023-05-03T04:50:19;97340.78;;;7.05;87.46
47366;BME280;33105;47.964;7.982;2023-05-03T04:53:24;97343.28;;;6.88;87.71
47366;BME280;33105;47.964;7.982;2023-05-03T04:56:36;97343.28;;;6.88;88.67
47366;BME280;33105;47.964;7.982;2023-05-03T04:59:51;97343.50;;;6.87;88.80
47366;BME280;33105;47.964;7.982;2023-05-03T05:02:54;97340.63;;;7.00;89.09
47366;BME280;33105;47.964;7.982;2023-05-03T05:05:56;97335.28;;;7.11;88.17
47366;BME280;33105;47.964;7.982;2023-05-03T05:08:58;97334.31;;;7.06;89.33
47366;BME280;33105;47.964;7.982;2023-05-03T05:11:59;97342.00;;;7.09;89.58
47366;BME280;33105;47.964;7.982;2023-05-03T05:15:08;97339.56;;;7.19;89.42
47366;BME280;33105;47.964;7.982;2023-05-03T05:18:09;97346.91;;;7.37;88.89
47366;BME280;33105;47.964;7.982;2023-05-03T05:21:12;97343.16;;;7.86;86.58
47366;BME280;33105;47.964;7.982;2023-05-03T05:24:14;97353.31;;;7.61;87.54
47366;BME280;33105;47.964;7.982;2023-05-03T05:27:16;97346.41;;;7.76;87.22
47366;BME280;33105;47.964;7.982;2023-05-03T05:30:18;97347.63;;;7.92;87.34
47366;BME280;33105;47.964;7.982;2023-05-03T05:33:20;97351.75;;;8.13;86.67
47366;BME280;33105;47.964;7.982;2023-05-03T05:36:23;97347.75;;;8.15;87.00
47366;BME280;33105;47.964;7.982;2023-05-03T05:39:25;97351.25;;;8.46;85.61
47366;BME280;33105;47.964;7.982;2023-05-03T05:42:26;97347.63;;;8.64;85.62
47366;BME280;33105;47.964;7.982;2023-05-03T05:45:28;97356.19;;;8.91;85.24
47366;BME280;33105;47.964;7.982;2023-05-03T05:48:31;97351.41;;;9.33;83.87
47366;BME280;33105;47.964;7.982;2023-05-03T05:51:33;97343.34;;;9.38;83.49
47366;BME280;33105;47.964;7.982;2023-05-03T05:54:34;97347.91;;;9.61;83.46
47366;BME280;33105;47.964;7.982;2023-05-03T05:57:36;97340.88;;;9.76;82.75
47366;BME280;33105;47.964;7.982;2023-05-03T06:00:38;97346.88;;;9.50;81.95
47366;BME280;33105;47.964;7.982;2023-05-03T06:03:39;97332.31;;;9.73;82.27
47366;BME280;33105;47.964;7.982;2023-05-03T06:06:42;97344.31;;;9.72;80.62
47366;BME280;33105;47.964;7.982;2023-05-03T06:09:43;97332.88;;;9.86;80.49
47366;BME280;33105;47.964;7.982;2023-05-03T06:12:46;97324.34;;;10.11;80.45
47366;BME280;33105;47.964;7.982;2023-05-03T06:15:52;97322.69;;;10.10;79.50
47366;BME280;33105;47.964;7.982;2023-05-03T06:18:54;97328.69;;;10.24;78.62
47366;BME280;33105;47.964;7.982;2023-05-03T06:21:55;97326.06;;;10.17;77.94
47366;BME280;33105;47.964;7.982;2023-05-03T06:24:57;97317.53;;;10.42;78.77
47366;BME280;33105;47.964;7.982;2023-05-03T06:27:59;97318.72;;;10.63;78.53
47366;BME280;33105;47.964;7.982;2023-05-03T06:31:04;97316.88;;;10.69;76.91
47366;BME280;33105;47.964;7.982;2023-05-03T06:34:08;97309.28;;;10.54;76.12
47366;BME280;33105;47.964;7.982;2023-05-03T06:37:10;97313.75;;;10.77;77.35
47366;BME280;33105;47.964;7.982;2023-05-03T06:40:11;97312.50;;;10.84;77.81
47366;BME280;33105;47.964;7.982;2023-05-03T06:43:13;97312.25;;;10.86;76.99
47366;BME280;33105;47.964;7.982;2023-05-03T06:46:22;97314.38;;;11.01;77.72
47366;BME280;33105;47.964;7.982;2023-05-03T06:49:24;97315.72;;;11.37;78.00
47366;BME280;33105;47.964;7.982;2023-05-03T06:52:25;97310.03;;;11.43;75.56
47366;BME280;33105;47.964;7.982;2023-05-03T06:55:26;97305.88;;;11.79;72.62
47366;BME280;33105;47.964;7.982;2023-05-03T06:58:28;97304.56;;;12.09;72.75
47366;BME280;33105;47.964;7.982;2023-05-03T07:01:33;97297.31;;;11.98;75.82
47366;BME280;33105;47.964;7.982;2023-05-03T07:04:34;97302.78;;;12.24;73.98
47366;BME280;33105;47.964;7.982;2023-05-03T07:07:37;97288.50;;;12.49;72.46
47366;BME280;33105;47.964;7.982;2023-05-03T07:10:39;97280.63;;;12.58;74.18
47366;BME280;33105;47.964;7.982;2023-05-03T07:13:41;97281.13;;;12.92;69.99
47366;BME280;33105;47.964;7.982;2023-05-03T07:16:43;97275.34;;;12.88;71.63
47366;BME280;33105;47.964;7.982;2023-05-03T07:19:44;97273.28;;;13.53;65.68
47366;BME280;33105;47.964;7.982;2023-05-03T07:22:45;97269.06;;;13.30;71.16
47366;BME280;33105;47.964;7.982;2023-05-03T07:25:48;97259.75;;;13.36;71.50
47366;BME280;33105;47.964;7.982;2023-05-03T07:28:49;97255.44;;;13.55;69.41
47366;BME280;33105;47.964;7.982;2023-05-03T07:31:50;97248.34;;;13.70;68.54
47366;BME280;33105;47.964;7.982;2023-05-03T07:34:52;97250.03;;;13.86;68.52
47366;BME280;33105;47.964;7.982;2023-05-03T07:37:53;97251.97;;;13.95;66.89
47366;BME280;33105;47.964;7.982;2023-05-03T07:40:54;97246.28;;;14.33;64.66
47366;BME280;33105;47.964;7.982;2023-05-03T07:43:56;97235.84;;;14.70;60.14
47366;BME280;33105;47.964;7.982;2023-05-03T07:46:57;97238.88;;;14.79;59.69
47366;BME280;33105;47.964;7.982;2023-05-03T07:49:58;97234.16;;;14.94;61.08
47366;BME280;33105;47.964;7.982;2023-05-03T07:52:59;97231.94;;;15.07;60.04
47366;BME280;33105;47.964;7.982;2023-05-03T07:56:01;97233.25;;;15.19;59.50
47366;BME280;33105;47.964;7.982;2023-05-03T07:59:02;97236.22;;;15.38;59.94
47366;BME280;33105;47.964;7.982;2023-05-03T08:02:03;97231.13;;;15.01;60.87
47366;BME280;33105;47.964;7.982;2023-05-03T08:05:05;97240.63;;;15.44;55.52
47366;BME280;33105;47.964;7.982;2023-05-03T08:08:07;97234.25;;;15.54;57.47
47366;BME280;33105;47.964;7.982;2023-05-03T08:11:09;97238.03;;;15.73;59.30
47366;BME280;33105;47.964;7.982;2023-05-03T08:14:11;97254.34;;;15.59;56.79
47366;BME280;33105;47.964;7.982;2023-05-03T08:17:13;97262.09;;;15.37;61.56
47366;BME280;33105;47.964;7.982;2023-05-03T08:20:14;97255.47;;;15.53;63.23
47366;BME280;33105;47.964;7.982;2023-05-03T08:23:16;97258.03;;;15.19;60.49
47366;BME280;33105;47.964;7.982;2023-05-03T08:26:17;97259.94;;;15.29;62.60
47366;BME280;33105;47.964;7.982;2023-05-03T08:29:19;97257.19;;;15.29;63.68
47366;BME280;33105;47.964;7.982;2023-05-03T08:32:21;97248.94;;;15.24;64.90
47366;BME280;33105;47.964;7.982;2023-05-03T08:35:22;97252.53;;;15.14;65.56
47366;BME280;33105;47.964;7.982;2023-05-03T08:38:23;97246.22;;;15.14;63.27
47366;BME280;33105;47.964;7.982;2023-05-03T08:41:29;97239.06;;;15.13;65.53
47366;BME280;33105;47.964;7.982;2023-05-03T08:44:31;97242.63;;;15.13;63.51
47366;BME280;33105;47.964;7.982;2023-05-03T08:47:37;97242.34;;;15.25;66.03
47366;BME280;33105;47.964;7.982;2023-05-03T08:50:41;97252.78;;;15.28;63.72
47366;BME280;33105;47.964;7.982;2023-05-03T08:53:43;97251.22;;;15.02;63.86
47366;BME280;33105;47.964;7.982;2023-05-03T08:56:44;97246.53;;;14.87;65.77
47366;BME280;33105;47.964;7.982;2023-05-03T08:59:51;97253.34;;;15.20;65.15
47366;BME280;33105;47.964;7.982;2023-05-03T09:02:58;97250.81;;;15.44;63.53
47366;BME280;33105;47.964;7.982;2023-05-03T09:05:59;97250.53;;;15.35;63.88
47366;BME280;33105;47.964;7.982;2023-05-03T09:09:03;97252.19;;;15.36;64.27
47366;BME280;33105;47.964;7.982;2023-05-03T09:12:07;97257.25;;;15.04;62.55
47366;BME280;33105;47.964;7.982;2023-05-03T09:15:20;97256.75;;;14.76;63.22
47366;BME280;33105;47.964;7.982;2023-05-03T09:18:22;97254.25;;;14.90;64.99
47366;BME280;33105;47.964;7.982;2023-05-03T09:21:24;97247.56;;;15.31;68.11
47366;BME280;33105;47.964;7.982;2023-05-03T09:24:26;97257.63;;;15.61;62.65
47366;BME280;33105;47.964;7.982;2023-05-03T09:27:27;97256.06;;;16.05;63.54
47366;BME280;33105;47.964;7.982;2023-05-03T09:30:28;97254.97;;;16.01;59.83
47366;BME280;33105;47.964;7.982;2023-05-03T09:33:30;97250.28;;;16.06;61.20
47366;BME280;33105;47.964;7.982;2023-05-03T09:36:45;97251.97;;;15.97;60.59
47366;BME280;33105;47.964;7.982;2023-05-03T09:39:47;97239.44;;;16.15;59.29
47366;BME280;33105;47.964;7.982;2023-05-03T09:43:09;97242.22;;;16.54;61.24
47366;BME280;33105;47.964;7.982;2023-05-03T09:46:12;97235.88;;;16.53;57.88
47366;BME280;33105;47.964;7.982;2023-05-03T09:49:13;97235.28;;;16.56;59.27
47366;BME280;33105;47.964;7.982;2023-05-03T09:52:15;97231.34;;;16.67;58.23
47366;BME280;33105;47.964;7.982;2023-05-03T09:55:16;97235.63;;;16.50;59.02
47366;BME280;33105;47.964;7.982;2023-05-03T09:58:18;97233.28;;;16.62;55.47
47366;BME280;33105;47.964;7.982;2023-05-03T10:01:22;97225.72;;;16.44;51.55
47366;BME280;33105;47.964;7.982;2023-05-03T10:04:28;97224.47;;;16.65;49.95
47366;BME280;33105;47.964;7.982;2023-05-03T10:07:34;97229.72;;;16.95;49.35
47366;BME280;33105;47.964;7.982;2023-05-03T10:10:39;97228.16;;;17.37;50.37
47366;BME280;33105;47.964;7.982;2023-05-03T10:13:44;97220.13;;;17.59;48.34
47366;BME280;33105;47.964;7.982;2023-05-03T10:16:48;97226.66;;;18.11;53.75
47366;BME280;33105;47.964;7.982;2023-05-03T10:20:00;97222.28;;;17.20;49.78
47366;BME280;33105;47.964;7.982;2023-05-03T10:23:08;97227.09;;;17.57;49.88
47366;BME280;33105;47.964;7.982;2023-05-03T10:26:14;97214.75;;;17.92;48.81
47366;BME280;33105;47.964;7.982;2023-05-03T10:32:36;97221.94;;;17.74;47.44
47366;BME280;33105;47.964;7.982;2023-05-03T10:35:52;97204.22;;;18.13;45.60
47366;BME280;33105;47.964;7.982;2023-05-03T10:38:55;97207.38;;;18.06;46.30
47366;BME280;33105;47.964;7.982;2023-05-03T10:42:04;97206.34;;;18.02;46.16
47366;BME280;33105;47.964;7.982;2023-05-03T10:45:08;97199.75;;;17.79;43.29
47366;BME280;33105;47.964;7.982;2023-05-03T10:54:31;97186.38;;;18.75;45.09
47366;BME280;33105;47.964;7.982;2023-05-03T10:57:32;97184.84;;;18.31;43.33
47366;BME280;33105;47.964;7.982;2023-05-03T11:00:38;97192.31;;;18.82;43.52
47366;BME280;33105;47.964;7.982;2023-05-03T11:03:51;97189.91;;;18.43;43.51
47366;BME280;33105;47.964;7.982;2023-05-03T11:06:54;97177.25;;;18.23;45.50
47366;BME280;33105;47.964;7.982;2023-05-03T11:09:56;97174.19;;;18.57;45.43
47366;BME280;33105;47.964;7.982;2023-05-03T11:12:57;97169.25;;;18.73;44.21
47366;BME280;33105;47.964;7.982;2023-05-03T11:15:58;97172.06;;;18.35;44.38
47366;BME280;33105;47.964;7.982;2023-05-03T11:19:01;97167.78;;;18.43;43.12
47366;BME280;33105;47.964;7.982;2023-05-03T11:22:02;97168.06;;;19.20;41.54
47366;BME280;33105;47.964;7.982;2023-05-03T11:25:04;97163.22;;;19.40;41.34
47366;BME280;33105;47.964;7.982;2023-05-03T11:28:05;97158.09;;;19.06;41.18
47366;BME280;33105;47.964;7.982;2023-05-03T11:31:11;97154.22;;;19.48;39.63
47366;BME280;33105;47.964;7.982;2023-05-03T11:34:13;97157.72;;;19.53;44.30
47366;BME280;33105;47.964;7.982;2023-05-03T11:37:15;97158.09;;;19.06;44.35
47366;BME280;33105;47.964;7.982;2023-05-03T11:40:17;97156.84;;;18.84;41.90
47366;BME280;33105;47.964;7.982;2023-05-03T11:43:18;97156.97;;;18.79;41.80
47366;BME280;33105;47.964;7.982;2023-05-03T11:46:25;97155.72;;;18.85;42.04
47366;BME280;33105;47.964;7.982;2023-05-03T11:49:27;97146.94;;;19.52;41.74
47366;BME280;33105;47.964;7.982;2023-05-03T11:52:29;97150.91;;;19.73;42.60
47366;BME280;33105;47.964;7.982;2023-05-03T11:55:31;97144.47;;;20.00;43.27
47366;BME280;33105;47.964;7.982;2023-05-03T11:58:32;97148.66;;;19.34;41.06
47366;BME280;33105;47.964;7.982;2023-05-03T12:01:35;97156.56;;;19.13;42.53
47366;BME280;33105;47.964;7.982;2023-05-03T12:04:36;97149.22;;;19.86;41.94
47366;BME280;33105;47.964;7.982;2023-05-03T12:07:41;97147.44;;;20.03;39.94
47366;BME280;33105;47.964;7.982;2023-05-03T12:10:43;97143.69;;;19.86;41.73
47366;BME280;33105;47.964;7.982;2023-05-03T12:13:44;97139.28;;;20.07;40.59
47366;BME280;33105;47.964;7.982;2023-05-03T12:16:47;97131.53;;;19.32;39.62
47366;BME280;33105;47.964;7.982;2023-05-03T12:19:50;97137.09;;;19.05;41.34
47366;BME280;33105;47.964;7.982;2023-05-03T12:22:53;97131.34;;;19.92;40.40
47366;BME280;33105;47.964;7.982;2023-05-03T12:25:56;97131.47;;;19.87;41.51
47366;BME280;33105;47.964;7.982;2023-05-03T12:28:57;97121.94;;;19.79;42.84
47366;BME280;33105;47.964;7.982;2023-05-03T12:31:58;97127.31;;;19.48;40.11
47366;BME280;33105;47.964;7.982;2023-05-03T12:35:06;97132.56;;;19.22;43.13
47366;BME280;33105;47.964;7.982;2023-05-03T12:38:11;97121.56;;;19.72;43.51
47366;BME280;33105;47.964;7.982;2023-05-03T12:41:13;97129.78;;;19.50;41.05
47366;BME280;33105;47.964;7.982;2023-05-03T12:44:15;97133.78;;;19.16;41.21
47366;BME280;33105;47.964;7.982;2023-05-03T12:47:16;97122.91;;;19.47;39.44
47366;BME280;33105;47.964;7.982;2023-05-03T12:50:18;97120.75;;;19.30;41.82
47366;BME280;33105;47.964;7.982;2023-05-03T12:53:20;97116.97;;;19.13;41.68
47366;BME280;33105;47.964;7.982;2023-05-03T12:56:22;97115.56;;;19.01;42.04
47366;BME280;33105;47.964;7.982;2023-05-03T12:59:23;97108.53;;;19.45;44.06
47366;BME280;33105;47.964;7.982;2023-05-03T13:02:25;97096.31;;;19.60;43.64
47366;BME280;33105;47.964;7.982;2023-05-03T13:05:26;97094.69;;;20.40;42.08
47366;BME280;33105;47.964;7.982;2023-05-03T13:08:27;97089.41;;;19.71;40.00
47366;BME280;33105;47.964;7.982;2023-05-03T13:11:29;97084.09;;;19.61;39.43
47366;BME280;33105;47.964;7.982;2023-05-03T13:14:31;97081.94;;;19.58;40.11
47366;BME280;33105;47.964;7.982;2023-05-03T13:17:32;97079.84;;;19.77;42.99
47366;BME280;33105;47.964;7.982;2023-05-03T13:20:34;97076.78;;;19.79;39.43
47366;BME280;33105;47.964;7.982;2023-05-03T13:23:36;97078.56;;;19.47;40.47
47366;BME280;33105;47.964;7.982;2023-05-03T13:26:37;97067.25;;;19.71;41.08
47366;BME280;33105;47.964;7.982;2023-05-03T13:29:39;97074.66;;;19.48;40.95
47366;BME280;33105;47.964;7.982;2023-05-03T13:32:40;97058.59;;;19.50;40.99
47366;BME280;33105;47.964;7.982;2023-05-03T13:35:42;97052.25;;;19.72;41.11
47366;BME280;33105;47.964;7.982;2023-05-03T13:38:43;97041.28;;;20.12;40.85
47366;BME280;33105;47.964;7.982;2023-05-03T13:41:45;97051.31;;;20.21;40.12
47366;BME280;33105;47.964;7.982;2023-05-03T13:44:47;97052.31;;;20.48;39.51
47366;BME280;33105;47.964;7.982;2023-05-03T13:47:48;97044.66;;;20.31;37.89
47366;BME280;33105;47.964;7.982;2023-05-03T13:50:49;97042.03;;;19.81;39.23
47366;BME280;33105;47.964;7.982;2023-05-03T13:53:51;97039.31;;;20.12;40.59
47366;BME280;33105;47.964;7.982;2023-05-03T13:56:52;97023.91;;;19.97;42.91
47366;BME280;33105;47.964;7.982;2023-05-03T13:59:53;97026.97;;;20.41;40.78
47366;BME280;33105;47.964;7.982;2023-05-03T14:02:55;97021.63;;;20.53;42.22
47366;BME280;33105;47.964;7.982;2023-05-03T14:05:57;97024.13;;;20.63;38.03
47366;BME280;33105;47.964;7.982;2023-05-03T14:08:58;97032.69;;;20.22;39.45
47366;BME280;33105;47.964;7.982;2023-05-03T14:12:01;97019.28;;;19.70;39.67
47366;BME280;33105;47.964;7.982;2023-05-03T14:15:05;97017.72;;;19.42;38.84
47366;BME280;33105;47.964;7.982;2023-05-03T14:18:08;97022.69;;;19.90;40.34
47366;BME280;33105;47.964;7.982;2023-05-03T14:21:10;97012.53;;;20.08;39.82
47366;BME280;33105;47.964;7.982;2023-05-03T14:24:12;97012.09;;;20.14;37.98
47366;BME280;33105;47.964;7.982;2023-05-03T14:27:13;97018.91;;;20.08;39.21
47366;BME280;33105;47.964;7.982;2023-05-03T14:30:17;97012.56;;;20.38;39.98
47366;BME280;33105;47.964;7.982;2023-05-03T14:33:18;97012.88;;;20.68;40.52
47366;BME280;33105;47.964;7.982;2023-05-03T14:36:19;97009.59;;;20.35;39.62
47366;BME280;33105;47.964;7.982;2023-05-03T14:39:21;97004.81;;;20.58;37.89
47366;BME280;33105;47.964;7.982;2023-05-03T14:42:22;97000.41;;;20.57;38.42
47366;BME280;33105;47.964;7.982;2023-05-03T14:45:23;97005.75;;;20.45;38.75
47366;BME280;33105;47.964;7.982;2023-05-03T14:48:25;97001.06;;;20.31;36.37
47366;BME280;33105;47.964;7.982;2023-05-03T14:51:26;97001.94;;;20.10;37.45
47366;BME280;33105;47.964;7.982;2023-05-03T14:54:28;97001.91;;;20.01;36.75
47366;BME280;33105;47.964;7.982;2023-05-03T14:57:29;96989.72;;;19.88;38.14
47366;BME280;33105;47.964;7.982;2023-05-03T15:00:32;96992.59;;;20.28;37.87
47366;BME280;33105;47.964;7.982;2023-05-03T15:03:33;97002.69;;;20.24;36.56
47366;BME280;33105;47.964;7.982;2023-05-03T15:06:34;97000.34;;;20.40;36.00
47366;BME280;33105;47.964;7.982;2023-05-03T15:09:40;97003.84;;;20.54;37.64
47366;BME280;33105;47.964;7.982;2023-05-03T15:12:45;96998.31;;;20.54;35.88
47366;BME280;33105;47.964;7.982;2023-05-03T15:15:47;97006.00;;;20.65;37.12
47366;BME280;33105;47.964;7.982;2023-05-03T15:18:48;96998.72;;;20.16;35.88
47366;BME280;33105;47.964;7.982;2023-05-03T15:21:50;96995.22;;;20.02;38.22
47366;BME280;33105;47.964;7.982;2023-05-03T15:24:51;96997.59;;;20.17;38.33
47366;BME280;33105;47.964;7.982;2023-05-03T15:27:53;96987.72;;;20.02;37.41
47366;BME280;33105;47.964;7.982;2023-05-03T15:30:54;97001.97;;;19.87;36.36
47366;BME280;33105;47.964;7.982;2023-05-03T15:33:55;97003.44;;;20.16;38.44
47366;BME280;33105;47.964;7.982;2023-05-03T15:36:56;97001.81;;;20.15;38.72
47366;BME280;33105;47.964;7.982;2023-05-03T15:39:57;97004.69;;;20.01;37.25
47366;BME280;33105;47.964;7.982;2023-05-03T15:42:59;97007.94;;;19.81;38.40
47366;BME280;33105;47.964;7.982;2023-05-03T15:46:01;97008.22;;;19.70;37.81
47366;BME280;33105;47.964;7.982;2023-05-03T15:49:03;97010.78;;;19.67;38.44
47366;BME280;33105;47.964;7.982;2023-05-03T15:52:05;97014.88;;;19.69;38.34
47366;BME280;33105;47.964;7.982;2023-05-03T15:55:07;97010.63;;;19.50;38.15
47366;BME280;33105;47.964;7.982;2023-05-03T15:58:09;97006.75;;;19.73;39.50
47366;BME280;33105;47.964;7.982;2023-05-03T16:01:10;97008.72;;;19.73;39.73
47366;BME280;33105;47.964;7.982;2023-05-03T16:04:13;97006.94;;;19.99;38.91
47366;BME280;33105;47.964;7.982;2023-05-03T16:07:14;97010.47;;;19.68;39.32
47366;BME280;33105;47.964;7.982;2023-05-03T16:10:16;97002.59;;;19.26;38.51
47366;BME280;33105;47.964;7.982;2023-05-03T16:13:17;97011.00;;;19.21;39.77
47366;BME280;33105;47.964;7.982;2023-05-03T16:16:18;97004.19;;;19.41;39.33
47366;BME280;33105;47.964;7.982;2023-05-03T16:19:20;97009.78;;;19.13;38.52
47366;BME280;33105;47.964;7.982;2023-05-03T16:22:21;97004.34;;;19.08;38.81
47366;BME280;33105;47.964;7.982;2023-05-03T16:25:22;97001.16;;;19.15;40.82
47366;BME280;33105;47.964;7.982;2023-05-03T16:28:25;97007.13;;;19.08;39.88
47366;BME280;33105;47.964;7.982;2023-05-03T16:31:30;97002.81;;;19.16;40.90